Time;durP1;ratioP1;P1;durP2;ratioP2;P2;SDS_P1;SDS_P2;PMS_P1;PMS_P2;Temp;Humidity;BMP_temperature;BMP_pressure;BME280_temperature;BME280_humidity;BME280_pressure;Samples;Min_cycle;Max_cycle;Signal;HPM_P1;HPM_P2
2023/01/21 00:02:07;;;;;;;44.50;15.32;;;1.60;99.90;;;;;;6155186;23;20077;-79
2023/01/21 00:04:36;;;;;;;42.92;15.98;;;1.50;99.90;;;;;;6155078;23;19998;-80
2023/01/21 00:07:06;;;;;;;44.45;15.95;;;1.60;99.90;;;;;;6155171;23;20012;-79
2023/01/21 00:09:35;;;;;;;36.15;16.20;;;1.60;99.90;;;;;;6154834;23;20013;-79
2023/01/21 00:12:18;;;;;;;38.70;15.23;;;1.50;99.90;;;;;;6100356;23;20047;31
2023/01/21 00:14:49;;;;;;;36.50;14.13;;;1.50;99.90;;;;;;6153546;23;20009;-80
2023/01/21 00:17:16;;;;;;;43.00;15.73;;;1.60;99.90;;;;;;6179089;23;20018;-79
2023/01/21 00:19:43;;;;;;;38.85;15.95;;;1.60;99.90;;;;;;6182365;23;20032;-78
2023/01/21 00:22:12;;;;;;;36.70;13.98;;;1.60;99.90;;;;;;6183173;23;20014;-79
2023/01/21 00:24:39;;;;;;;36.33;14.23;;;1.60;99.90;;;;;;6183461;23;20001;-78
2023/01/21 00:27:07;;;;;;;41.08;14.35;;;1.60;99.90;;;;;;6182968;23;20006;-79
2023/01/21 00:29:37;;;;;;;39.13;15.30;;;1.60;99.90;;;;;;6183222;23;20054;-79
2023/01/21 00:32:04;;;;;;;36.10;13.25;;;1.60;99.90;;;;;;6183813;23;19997;-78
2023/01/21 00:34:33;;;;;;;32.22;13.25;;;1.50;99.90;;;;;;6183883;23;20020;-78
2023/01/21 00:37:03;;;;;;;40.55;15.00;;;1.50;99.90;;;;;;6183152;23;20002;-79
2023/01/21 00:39:30;;;;;;;36.50;13.77;;;1.60;99.90;;;;;;6158384;23;20018;-79
2023/01/21 00:41:57;;;;;;;34.08;13.82;;;1.60;99.90;;;;;;6182913;23;20029;-79
2023/01/21 00:44:25;;;;;;;39.25;15.35;;;1.60;99.90;;;;;;6158374;23;20022;-80
2023/01/21 00:46:52;;;;;;;42.72;16.58;;;1.60;99.90;;;;;;6182393;23;20002;-80
2023/01/21 00:49:21;;;;;;;36.63;15.02;;;1.60;99.90;;;;;;6181196;23;20024;-78
2023/01/21 00:51:48;;;;;;;40.33;14.50;;;1.60;99.90;;;;;;6156786;23;20021;-79
2023/01/21 00:54:16;;;;;;;38.38;14.50;;;1.60;99.90;;;;;;6182372;23;20010;-81
2023/01/21 00:56:43;;;;;;;41.15;15.10;;;1.60;99.90;;;;;;6177261;23;20022;-79
2023/01/21 00:59:11;;;;;;;36.50;14.05;;;1.60;99.90;;;;;;6173825;23;20026;-79
2023/01/21 01:01:38;;;;;;;35.95;14.85;;;1.60;99.90;;;;;;6149922;23;20037;-79
2023/01/21 01:04:06;;;;;;;38.38;15.13;;;1.50;99.90;;;;;;6172323;23;20020;-80
2023/01/21 01:06:33;;;;;;;39.38;15.05;;;1.50;99.90;;;;;;6145156;23;20358;-79
2023/01/21 01:09:01;;;;;;;42.33;16.67;;;1.50;99.90;;;;;;6170247;23;20021;-79
2023/01/21 01:11:28;;;;;;;36.08;14.57;;;1.50;99.90;;;;;;6143677;23;20021;-78
2023/01/21 01:13:56;;;;;;;39.75;15.07;;;1.50;99.90;;;;;;6160149;23;20045;-80
2023/01/21 01:16:24;;;;;;;34.42;13.75;;;1.50;99.90;;;;;;6167642;23;20065;-80
2023/01/21 01:18:51;;;;;;;39.63;16.08;;;1.50;99.90;;;;;;6166695;23;20037;-79
2023/01/21 01:21:20;;;;;;;39.80;14.65;;;1.50;99.90;;;;;;6163773;23;20018;-79
2023/01/21 01:23:50;;;;;;;39.55;15.80;;;1.50;99.90;;;;;;6157368;23;20483;-78
2023/01/21 01:26:19;;;;;;;35.97;13.55;;;1.50;99.90;;;;;;6124610;23;20022;-79
2023/01/21 01:28:47;;;;;;;32.88;13.05;;;1.50;99.90;;;;;;6130457;23;20014;-79
2023/01/21 01:31:17;;;;;;;36.50;13.57;;;1.50;99.90;;;;;;6140070;23;20022;-79
2023/01/21 01:33:45;;;;;;;36.20;13.50;;;1.50;99.90;;;;;;6138502;23;20438;-80
2023/01/21 01:36:17;;;;;;;33.95;13.65;;;1.50;99.90;;;;;;6136924;23;20046;-80
2023/01/21 01:38:45;;;;;;;33.42;13.15;;;1.50;99.90;;;;;;6159421;23;20457;-79
2023/01/21 01:41:16;;;;;;;34.80;12.80;;;1.50;99.90;;;;;;6131864;23;20486;-80
2023/01/21 01:44:03;;;;;;;32.85;13.65;;;1.60;99.90;;;;;;6153094;23;20022;-79
2023/01/21 01:46:35;;;;;;;33.88;13.30;;;1.50;99.90;;;;;;6126284;23;20239;-79
2023/01/21 01:49:14;;;;;;;34.70;13.43;;;1.50;99.90;;;;;;6154338;23;20022;-80
2023/01/21 01:51:55;;;;;;;38.92;14.90;;;1.50;99.90;;;;;;6153862;23;20470;-80
2023/01/21 01:54:27;;;;;;;30.35;13.00;;;1.50;99.90;;;;;;6154254;23;20026;-80
2023/01/21 01:56:59;;;;;;;35.77;14.33;;;1.50;99.90;;;;;;6152161;23;20014;-79
2023/01/21 01:59:28;;;;;;;33.42;13.13;;;1.60;99.90;;;;;;6151170;23;20252;-79
2023/01/21 02:02:07;;;;;;;38.33;14.57;;;1.60;99.90;;;;;;6127040;23;20022;-79
2023/01/21 02:05:06;;;;;;;34.13;14.25;;;1.60;99.90;;;;;;6154384;23;20022;-79
2023/01/21 02:07:44;;;;;;;41.97;15.07;;;1.60;99.90;;;;;;6154356;23;20038;-79
2023/01/21 02:10:13;;;;;;;35.45;13.27;;;1.60;99.90;;;;;;6156783;23;20022;-79
2023/01/21 02:12:42;;;;;;;42.58;14.85;;;1.60;99.90;;;;;;6163361;23;20025;-79
2023/01/21 02:15:10;;;;;;;43.85;14.98;;;1.60;99.90;;;;;;6144723;23;20013;-79
2023/01/21 02:17:51;;;;;;;39.80;16.10;;;1.60;99.90;;;;;;6164474;23;20020;-79
2023/01/21 02:20:24;;;;;;;41.00;14.45;;;1.60;99.90;;;;;;6141138;23;20068;-80
2023/01/21 02:23:09;;;;;;;38.10;14.82;;;1.60;99.90;;;;;;6153535;23;20112;-80
2023/01/21 02:26:13;;;;;;;42.20;16.30;;;1.60;99.90;;;;;;6157436;23;20029;-80
2023/01/21 02:28:46;;;;;;;38.28;13.05;;;1.60;99.90;;;;;;6137896;23;20017;-79
2023/01/21 02:31:26;;;;;;;38.80;14.73;;;1.60;99.90;;;;;;6163543;23;20052;-79
2023/01/21 02:34:15;;;;;;;40.10;14.57;;;1.60;99.90;;;;;;6166152;23;20073;-79
2023/01/21 02:37:04;;;;;;;43.97;16.13;;;1.60;99.90;;;;;;6141464;23;20022;-79
2023/01/21 02:39:55;;;;;;;41.97;15.77;;;1.60;99.90;;;;;;6139238;23;20029;-79
2023/01/21 02:42:59;;;;;;;45.10;14.55;;;1.60;99.90;;;;;;6154602;23;20078;-79
2023/01/21 02:45:45;;;;;;;39.50;13.68;;;1.50;99.90;;;;;;6149161;23;20029;-79
2023/01/21 02:48:18;;;;;;;40.35;14.25;;;1.60;99.90;;;;;;6139535;23;20255;-79
2023/01/21 02:50:49;;;;;;;43.28;15.95;;;1.50;99.90;;;;;;6167527;23;20017;-79
2023/01/21 02:53:37;;;;;;;41.42;14.13;;;1.60;99.90;;;;;;6162525;23;20024;-79
2023/01/21 02:56:13;;;;;;;38.10;13.82;;;1.60;99.90;;;;;;6161131;23;20021;-79
2023/01/21 02:58:44;;;;;;;43.55;15.43;;;1.50;99.90;;;;;;6135628;23;20342;-79
2023/01/21 03:01:23;;;;;;;40.92;14.75;;;1.30;99.90;;;;;;6161851;23;20087;-79
2023/01/21 03:04:10;;;;;;;39.28;15.82;;;1.60;99.90;;;;;;6163519;23;20031;-79
2023/01/21 03:07:19;;;;;;;38.22;14.63;;;1.50;99.90;;;;;;6162474;23;20021;-79
2023/01/21 03:09:48;;;;;;;41.05;15.07;;;1.60;99.90;;;;;;6114890;23;20017;-79
2023/01/21 03:12:28;;;;;;;36.60;13.23;;;1.60;99.90;;;;;;6159814;23;20026;-79
2023/01/21 03:18:35;;;;;;;36.83;14.95;;;1.70;99.90;;;;;;6161985;23;20018;-79
2023/01/21 03:21:12;;;;;;;30.65;11.95;;;1.70;99.90;;;;;;6159788;23;20333;-79
2023/01/21 03:23:42;;;;;;;34.92;13.57;;;1.70;99.90;;;;;;6135936;23;20026;-79
2023/01/21 03:26:13;;;;;;;38.58;13.63;;;1.70;99.90;;;;;;6161977;23;20022;-79
2023/01/21 03:28:45;;;;;;;32.38;12.80;;;1.70;99.90;;;;;;6135709;23;20072;-79
2023/01/21 03:31:18;;;;;;;36.95;14.10;;;1.70;99.90;;;;;;6157627;23;20354;-79
2023/01/21 03:33:47;;;;;;;34.88;12.90;;;1.70;99.90;;;;;;6160055;23;20033;-79
2023/01/21 03:36:25;;;;;;;36.70;12.85;;;1.70;99.90;;;;;;6133056;23;20120;-78
2023/01/21 03:38:56;;;;;;;35.40;13.27;;;1.70;99.90;;;;;;6158927;23;20015;-79
2023/01/21 03:41:32;;;;;;;35.30;13.23;;;1.70;99.90;;;;;;6133707;23;20022;-79
2023/01/21 03:43:59;;;;;;;36.05;13.30;;;1.70;99.90;;;;;;6159379;23;20084;-79
2023/01/21 03:46:58;;;;;;;37.60;13.52;;;1.70;99.90;;;;;;6156076;23;20018;-79
2023/01/21 03:49:30;;;;;;;34.17;13.55;;;1.70;99.90;;;;;;6157317;23;20064;-79
2023/01/21 03:51:59;;;;;;;35.97;12.85;;;1.70;99.90;;;;;;6156321;23;20068;-79
2023/01/21 03:54:26;;;;;;;31.17;13.05;;;1.70;99.90;;;;;;6152153;23;20013;-79
2023/01/21 03:56:54;;;;;;;42.22;15.25;;;1.80;99.90;;;;;;6127916;23;20018;-80
2023/01/21 03:59:21;;;;;;;39.00;14.80;;;1.70;99.90;;;;;;6153370;23;20072;-80
2023/01/21 04:01:48;;;;;;;41.10;15.10;;;1.70;99.90;;;;;;6153318;23;20032;-79
2023/01/21 04:04:15;;;;;;;38.75;13.73;;;1.80;99.90;;;;;;6150638;23;20028;-79
2023/01/21 04:06:42;;;;;;;38.45;13.68;;;1.80;99.90;;;;;;6127111;23;20032;-79
2023/01/21 04:09:10;;;;;;;40.50;16.45;;;1.80;99.90;;;;;;6127327;23;20041;-79
2023/01/21 04:11:38;;;;;;;39.92;16.83;;;1.80;99.90;;;;;;6127443;23;20022;-79
2023/01/21 04:14:05;;;;;;;40.13;14.10;;;1.80;99.90;;;;;;6125254;23;20472;-79
2023/01/21 04:16:32;;;;;;;39.65;15.00;;;1.80;99.90;;;;;;6150619;23;20476;-79
2023/01/21 04:18:59;;;;;;;38.55;15.85;;;1.80;99.90;;;;;;6156099;23;20048;-79
2023/01/21 04:21:26;;;;;;;41.05;15.07;;;1.80;99.90;;;;;;6157279;23;20026;-79
2023/01/21 04:23:54;;;;;;;38.75;14.48;;;1.80;99.90;;;;;;6132327;23;20025;-79
2023/01/21 04:26:21;;;;;;;42.60;17.13;;;1.80;99.90;;;;;;6130540;23;20029;-79
2023/01/21 04:28:48;;;;;;;54.53;20.48;;;1.70;99.90;;;;;;6128643;23;20029;-79
2023/01/21 04:31:15;;;;;;;56.72;21.20;;;1.70;99.90;;;;;;6129477;23;20457;-81
2023/01/21 04:33:42;;;;;;;51.05;19.52;;;1.80;99.90;;;;;;6153300;23;20024;-80
2023/01/21 04:36:09;;;;;;;46.53;17.95;;;1.80;99.90;;;;;;6128715;23;20017;-80
2023/01/21 04:38:37;;;;;;;42.88;17.00;;;1.80;99.90;;;;;;6128029;23;20049;-80
2023/01/21 04:41:04;;;;;;;38.85;15.48;;;1.80;99.90;;;;;;6127800;23;20029;-80
2023/01/21 04:43:31;;;;;;;41.63;14.65;;;1.80;99.90;;;;;;6128883;23;20254;-80
2023/01/21 04:45:58;;;;;;;33.65;12.68;;;1.80;99.90;;;;;;6153295;23;20120;-80
2023/01/21 04:48:25;;;;;;;35.65;13.98;;;1.70;99.90;;;;;;6151759;23;20056;-80
2023/01/21 04:50:52;;;;;;;39.30;13.85;;;1.80;99.90;;;;;;6127402;23;20120;-80
2023/01/21 04:53:20;;;;;;;35.25;14.00;;;1.80;99.90;;;;;;6131337;23;20021;-80
2023/01/21 04:55:50;;;;;;;31.48;12.93;;;1.80;99.90;;;;;;6133350;23;20327;-80
2023/01/21 04:58:19;;;;;;;34.30;13.23;;;1.80;99.90;;;;;;6133962;23;20017;-80
2023/01/21 05:00:46;;;;;;;37.75;12.90;;;1.80;99.90;;;;;;6135133;23;20017;-80
2023/01/21 05:03:14;;;;;;;35.22;12.23;;;1.80;99.90;;;;;;6135185;23;20025;-80
2023/01/21 05:05:41;;;;;;;38.95;14.38;;;1.80;99.90;;;;;;6159987;23;20394;-80
2023/01/21 05:08:09;;;;;;;30.00;12.40;;;1.80;99.90;;;;;;6159547;23;20489;-81
2023/01/21 05:10:36;;;;;;;38.05;14.05;;;1.80;99.90;;;;;;6133816;23;20017;-80
2023/01/21 05:13:03;;;;;;;39.10;15.65;;;1.80;99.90;;;;;;6159469;23;20301;-80
2023/01/21 05:15:30;;;;;;;37.47;16.23;;;1.80;99.90;;;;;;6161905;23;20021;-80
2023/01/21 05:17:59;;;;;;;34.42;13.75;;;1.80;99.90;;;;;;6158963;23;20504;-81
2023/01/21 05:20:26;;;;;;;37.50;13.80;;;1.80;99.90;;;;;;6130793;23;20457;-79
2023/01/21 05:22:53;;;;;;;36.85;15.25;;;1.80;99.90;;;;;;6129100;23;20147;-79
2023/01/21 05:25:20;;;;;;;37.65;14.60;;;1.80;99.90;;;;;;6155191;23;20018;-79
2023/01/21 05:27:52;;;;;;;45.83;17.30;;;1.80;99.90;;;;;;6156831;23;20023;-79
2023/01/21 05:30:20;;;;;;;41.17;15.20;;;1.80;99.90;;;;;;6128951;23;20033;-79
2023/01/21 05:32:52;;;;;;;39.25;15.93;;;1.80;99.90;;;;;;6128532;23;20026;-79
2023/01/21 05:35:21;;;;;;;41.45;15.93;;;1.80;99.90;;;;;;6152455;23;20349;-79
2023/01/21 05:37:48;;;;;;;39.42;15.90;;;1.80;99.90;;;;;;6152384;23;20025;-79
2023/01/21 05:40:16;;;;;;;44.42;15.75;;;1.80;99.90;;;;;;6151200;23;20031;-79
2023/01/21 05:42:45;;;;;;;40.10;16.05;;;1.80;99.90;;;;;;6128059;23;20076;-79
2023/01/21 05:45:13;;;;;;;38.53;14.70;;;1.80;99.90;;;;;;6128840;23;20032;-79
2023/01/21 05:47:40;;;;;;;45.47;16.05;;;1.80;99.90;;;;;;6154002;23;20330;-79
2023/01/21 05:50:09;;;;;;;42.33;14.85;;;1.80;99.90;;;;;;6126360;23;20025;-79
2023/01/21 05:52:37;;;;;;;36.25;13.45;;;1.80;99.90;;;;;;6124650;23;20361;-79
2023/01/21 05:55:04;;;;;;;33.50;13.32;;;1.80;99.90;;;;;;6149526;23;20028;-79
2023/01/21 05:57:33;;;;;;;36.97;13.60;;;1.80;99.90;;;;;;6150063;23;20095;-79
2023/01/21 06:00:00;;;;;;;39.58;15.77;;;1.80;99.90;;;;;;6123816;23;20022;-79
2023/01/21 06:02:27;;;;;;;45.05;18.13;;;1.80;99.90;;;;;;6149485;23;20068;-79
2023/01/21 06:04:54;;;;;;;45.15;18.65;;;1.80;99.90;;;;;;6125670;23;20022;-81
2023/01/21 06:07:21;;;;;;;55.10;20.70;;;1.80;99.90;;;;;;6150871;23;20014;-80
2023/01/21 06:09:48;;;;;;;45.17;17.45;;;1.80;99.90;;;;;;6125465;23;20018;-80
2023/01/21 06:12:15;;;;;;;45.17;18.40;;;1.80;99.90;;;;;;6148973;23;20013;-80
2023/01/21 06:14:43;;;;;;;49.88;19.98;;;1.80;99.90;;;;;;6149840;23;20072;-80
2023/01/21 06:17:10;;;;;;;52.33;20.30;;;1.80;99.90;;;;;;6124204;23;20108;-80
2023/01/21 06:19:37;;;;;;;39.78;16.15;;;1.80;99.90;;;;;;6150052;23;20088;-80
2023/01/21 06:22:04;;;;;;;42.80;17.42;;;1.80;99.90;;;;;;6148800;23;20424;-80
2023/01/21 06:24:31;;;;;;;43.45;17.13;;;1.90;99.90;;;;;;6147709;23;20101;-80
2023/01/21 06:26:58;;;;;;;40.15;15.65;;;1.80;99.90;;;;;;6124430;23;20036;-79
2023/01/21 06:29:25;;;;;;;36.95;14.85;;;1.90;99.90;;;;;;6125618;23;20022;-79
2023/01/21 06:31:52;;;;;;;37.35;15.10;;;1.70;99.90;;;;;;6125356;23;20017;-79
2023/01/21 06:34:20;;;;;;;34.20;12.77;;;1.90;99.90;;;;;;6149412;23;20108;-79
2023/01/21 06:36:47;;;;;;;36.42;12.73;;;1.80;99.90;;;;;;6124799;23;20021;-79
2023/01/21 06:39:14;;;;;;;32.65;13.73;;;1.80;99.90;;;;;;6148471;23;20021;-79
2023/01/21 06:41:41;;;;;;;30.77;12.65;;;1.80;99.90;;;;;;6144744;23;20028;-79
2023/01/21 06:44:08;;;;;;;36.28;14.68;;;1.80;99.90;;;;;;6128390;23;20049;-79
2023/01/21 06:46:35;;;;;;;35.75;14.02;;;1.80;99.90;;;;;;6153047;23;20025;-79
2023/01/21 06:49:07;;;;;;;35.67;13.32;;;1.80;99.90;;;;;;6127695;23;20018;-79
2023/01/21 06:51:34;;;;;;;39.33;15.05;;;1.80;99.90;;;;;;6147290;23;20029;-81
2023/01/21 06:54:01;;;;;;;39.25;15.18;;;1.90;99.90;;;;;;6148931;23;20022;-80
2023/01/21 06:56:28;;;;;;;38.05;13.70;;;1.80;99.90;;;;;;6149115;23;20032;-80
2023/01/21 06:58:56;;;;;;;33.30;14.30;;;1.80;99.90;;;;;;6147147;23;20358;-79
2023/01/21 07:01:23;;;;;;;34.15;13.90;;;1.80;99.90;;;;;;6147064;23;20025;-79
2023/01/21 07:03:50;;;;;;;39.10;14.32;;;1.90;99.90;;;;;;6147807;23;20393;-79
2023/01/21 07:06:17;;;;;;;45.65;16.30;;;1.90;99.90;;;;;;6147037;23;20025;-79
2023/01/21 07:08:44;;;;;;;36.42;14.95;;;1.90;99.90;;;;;;6149858;23;20068;-79
2023/01/21 07:11:11;;;;;;;40.05;15.63;;;1.90;99.90;;;;;;6148021;23;20327;-79
2023/01/21 07:13:38;;;;;;;44.88;17.42;;;1.90;99.90;;;;;;6148969;23;20022;-79
2023/01/21 07:16:06;;;;;;;38.03;15.60;;;1.90;99.90;;;;;;6123591;23;20056;-79
2023/01/21 07:18:33;;;;;;;37.42;14.15;;;1.90;99.90;;;;;;6148873;23;20028;-79
2023/01/21 07:21:00;;;;;;;37.50;14.70;;;1.90;99.90;;;;;;6147592;23;20029;-79
2023/01/21 07:23:29;;;;;;;33.92;12.95;;;1.90;99.90;;;;;;6149425;23;20052;-79
2023/01/21 07:25:56;;;;;;;35.60;15.18;;;1.90;99.90;;;;;;6122651;23;20032;-79
2023/01/21 07:28:23;;;;;;;34.75;13.02;;;1.90;99.90;;;;;;6147350;23;20415;-79
2023/01/21 07:30:51;;;;;;;34.30;14.82;;;1.90;99.90;;;;;;6147853;23;20022;-79
2023/01/21 07:33:18;;;;;;;32.80;14.38;;;1.90;99.90;;;;;;6149542;23;20064;-79
2023/01/21 07:35:45;;;;;;;36.72;14.77;;;2.00;99.90;;;;;;6147400;23;20019;-79
2023/01/21 07:38:12;;;;;;;36.70;14.35;;;1.90;99.90;;;;;;6148529;23;20105;-79
2023/01/21 07:40:39;;;;;;;37.20;13.95;;;1.90;99.90;;;;;;6122759;23;20017;-79
2023/01/21 07:43:08;;;;;;;38.50;14.27;;;2.00;99.90;;;;;;6151575;23;20029;-80
2023/01/21 07:45:35;;;;;;;41.97;16.75;;;2.00;99.90;;;;;;6132120;23;20419;-80
2023/01/21 07:48:03;;;;;;;40.60;15.30;;;2.00;99.90;;;;;;6122226;23;20075;-80
2023/01/21 07:50:30;;;;;;;42.42;16.13;;;2.00;99.90;;;;;;6148922;23;20454;-80
2023/01/21 07:52:58;;;;;;;40.42;16.80;;;2.00;99.90;;;;;;6149197;23;20027;-80
2023/01/21 07:55:26;;;;;;;35.10;14.25;;;2.00;99.90;;;;;;6149547;23;20022;-80
2023/01/21 07:57:57;;;;;;;42.83;16.35;;;2.00;99.90;;;;;;6149598;23;20057;-80
2023/01/21 08:00:28;;;;;;;41.13;16.83;;;2.00;99.90;;;;;;6124830;23;20033;-80
2023/01/21 08:02:56;;;;;;;51.72;19.45;;;2.00;99.90;;;;;;6125215;23;20033;-80
2023/01/21 08:05:24;;;;;;;61.45;23.55;;;2.00;99.90;;;;;;6149708;23;20387;-80
2023/01/21 08:07:52;;;;;;;53.78;21.85;;;2.00;99.90;;;;;;6149399;23;20022;-80
2023/01/21 08:10:21;;;;;;;47.92;18.58;;;2.00;99.90;;;;;;6151594;23;20028;-80
2023/01/21 08:12:48;;;;;;;44.38;18.13;;;2.00;99.90;;;;;;6156554;23;20051;-80
2023/01/21 08:15:15;;;;;;;51.30;19.30;;;2.00;99.90;;;;;;6107777;23;20022;-80
2023/01/21 08:17:45;;;;;;;46.10;19.17;;;2.00;99.90;;;;;;6152250;23;20017;-80
2023/01/21 08:20:12;;;;;;;42.35;17.33;;;2.00;99.90;;;;;;6126285;23;20033;-79
2023/01/21 08:22:39;;;;;;;43.33;16.90;;;2.10;99.90;;;;;;6123230;23;20076;-79
2023/01/21 08:25:07;;;;;;;42.35;17.60;;;2.10;99.90;;;;;;6150619;23;20048;-79
2023/01/21 08:27:34;;;;;;;39.83;17.38;;;2.20;99.90;;;;;;6128656;23;20460;-80
2023/01/21 08:30:01;;;;;;;53.72;21.40;;;2.20;99.90;;;;;;6149724;23;20072;-79
2023/01/21 08:32:30;;;;;;;47.05;18.60;;;2.20;99.90;;;;;;6151545;23;20834;-80
2023/01/21 08:34:57;;;;;;;38.88;16.30;;;2.20;99.90;;;;;;6130018;23;20292;-80
2023/01/21 08:37:24;;;;;;;41.60;17.40;;;2.20;99.90;;;;;;6150871;23;20082;-80
2023/01/21 08:39:51;;;;;;;37.78;15.18;;;2.20;99.90;;;;;;6126744;23;20052;-79
2023/01/21 08:42:19;;;;;;;34.53;13.85;;;2.20;99.90;;;;;;6148349;23;20350;-79
2023/01/21 08:44:49;;;;;;;38.17;14.35;;;2.20;99.90;;;;;;6126075;23;20412;-79
2023/01/21 08:47:17;;;;;;;40.05;14.50;;;2.20;99.90;;;;;;6159478;23;20468;-79
2023/01/21 08:49:44;;;;;;;35.00;13.80;;;2.30;99.90;;;;;;6129336;23;20034;-79
2023/01/21 08:52:11;;;;;;;37.05;13.82;;;2.30;99.90;;;;;;6153496;23;20064;-79
2023/01/21 08:54:40;;;;;;;34.25;12.90;;;2.40;99.90;;;;;;6130117;23;20085;-79
2023/01/21 08:57:07;;;;;;;35.67;13.15;;;2.40;99.90;;;;;;6128199;23;20045;-79
2023/01/21 08:59:34;;;;;;;31.83;13.63;;;2.50;99.90;;;;;;6130341;23;20469;-79
2023/01/21 09:02:01;;;;;;;32.40;12.63;;;2.60;99.90;;;;;;6148870;23;20029;-79
2023/01/21 09:04:28;;;;;;;34.40;13.70;;;2.50;99.90;;;;;;6152332;23;20021;-79
2023/01/21 09:06:56;;;;;;;33.47;13.65;;;2.60;99.90;;;;;;6152837;23;20407;-79
2023/01/21 09:09:23;;;;;;;28.67;12.77;;;2.50;99.90;;;;;;6147248;23;20449;-79
2023/01/21 09:11:51;;;;;;;31.50;12.30;;;1.50;99.90;;;;;;6121423;23;20018;-79
2023/01/21 09:14:19;;;;;;;34.42;13.40;;;2.50;99.90;;;;;;6148145;23;20024;-79
2023/01/21 09:16:49;;;;;;;31.52;12.90;;;2.50;99.90;;;;;;6145949;23;20021;-79
2023/01/21 09:19:17;;;;;;;27.08;11.57;;;2.50;99.90;;;;;;6120221;23;20021;-79
2023/01/21 09:21:44;;;;;;;31.35;12.32;;;2.50;99.90;;;;;;6118532;23;20025;-79
2023/01/21 09:24:11;;;;;;;31.65;12.65;;;2.50;99.90;;;;;;6144269;23;20528;-79
2023/01/21 09:26:42;;;;;;;30.73;12.13;;;2.50;99.90;;;;;;6148619;23;20420;-79
2023/01/21 09:29:10;;;;;;;37.25;14.77;;;2.60;99.90;;;;;;6127927;23;20119;-79
2023/01/21 09:31:37;;;;;;;37.45;14.63;;;2.60;99.90;;;;;;6128246;23;20040;-80
2023/01/21 09:34:05;;;;;;;41.92;15.55;;;2.70;99.90;;;;;;6151585;23;20063;-80
2023/01/21 09:36:34;;;;;;;36.78;15.45;;;2.80;99.90;;;;;;6146812;23;20092;-79
2023/01/21 09:39:01;;;;;;;40.10;14.77;;;2.80;99.90;;;;;;6147521;23;20397;-79
2023/01/21 09:41:35;;;;;;;34.97;14.50;;;2.90;99.90;;;;;;6122378;23;20017;-79
2023/01/21 09:44:36;;;;;;;32.95;14.40;;;2.80;99.90;;;;;;6146262;23;20025;-79
2023/01/21 09:47:03;;;;;;;32.55;13.45;;;2.80;99.90;;;;;;6135464;23;20402;-79
2023/01/21 09:49:41;;;;;;;32.60;14.27;;;2.90;99.90;;;;;;6121716;23;20037;-79
2023/01/21 09:52:24;;;;;;;32.90;13.60;;;2.90;99.90;;;;;;6149661;23;20389;-79
2023/01/21 09:54:52;;;;;;;30.45;14.18;;;2.90;99.90;;;;;;6148891;23;20458;-79
2023/01/21 09:57:19;;;;;;;39.92;17.02;;;2.90;99.90;;;;;;6121970;23;20017;-78
2023/01/21 10:00:15;;;;;;;34.38;13.00;;;2.90;99.90;;;;;;6147158;23;20373;-79
2023/01/21 10:02:48;;;;;;;31.85;12.25;;;3.00;99.90;;;;;;6097633;23;20049;-79
2023/01/21 10:05:24;;;;;;;28.13;12.50;;;3.00;99.90;;;;;;6146192;23;20048;-79
2023/01/21 10:07:56;;;;;;;31.55;13.15;;;3.10;99.90;;;;;;6143854;23;20021;-79
2023/01/21 10:11:08;;;;;;;32.92;12.85;;;3.10;99.90;;;;;;6147625;23;20048;-78
2023/01/21 10:14:03;;;;;;;33.78;13.25;;;3.20;99.90;;;;;;6083642;23;20117;-79
2023/01/21 10:17:08;;;;;;;28.52;11.95;;;3.10;99.90;;;;;;6086085;23;20113;-79
2023/01/21 10:20:16;;;;;;;31.67;12.75;;;3.10;99.90;;;;;;6109997;23;20049;-78
2023/01/21 10:22:53;;;;;;;35.13;12.80;;;3.10;99.90;;;;;;6121880;23;20032;-78
2023/01/21 10:25:30;;;;;;;29.83;14.30;;;3.10;99.90;;;;;;6121963;23;20027;-78
2023/01/21 10:28:25;;;;;;;32.70;13.23;;;3.10;99.90;;;;;;6119256;23;20101;-79
2023/01/21 10:31:07;;;;;;;31.42;12.65;;;3.10;99.90;;;;;;6145331;23;20454;-79
2023/01/21 10:33:34;;;;;;;25.30;10.75;;;3.10;99.90;;;;;;6120584;23;20572;-79
2023/01/21 10:36:10;;;;;;;23.60;9.88;;;3.20;99.90;;;;;;6145711;23;20022;-79
2023/01/21 10:39:16;;;;;;;26.48;10.82;;;3.10;99.90;;;;;;6146218;23;20076;-78
2023/01/21 10:42:12;;;;;;;23.73;10.00;;;3.20;99.90;;;;;;6124514;23;20030;-79
2023/01/21 10:44:54;;;;;;;23.55;10.57;;;3.10;99.90;;;;;;6144664;23;20064;-78
2023/01/21 10:47:41;;;;;;;23.40;10.13;;;3.20;99.90;;;;;;6143208;23;20030;-78
2023/01/21 10:50:35;;;;;;;19.67;9.52;;;3.20;99.90;;;;;;6146006;23;20025;-78
2023/01/21 10:53:44;;;;;;;17.10;7.60;;;3.20;99.90;;;;;;6145932;23;20101;-78
2023/01/21 10:56:49;;;;;;;18.63;8.18;;;3.20;99.90;;;;;;6086215;23;20023;-79
2023/01/21 10:59:22;;;;;;;23.42;9.25;;;3.10;99.90;;;;;;6119711;23;20024;-79
2023/01/21 11:01:56;;;;;;;26.48;10.35;;;3.20;99.90;;;;;;6143452;23;20022;-79
2023/01/21 11:04:27;;;;;;;22.67;10.07;;;3.20;99.90;;;;;;6146072;23;20039;-79
2023/01/21 11:07:03;;;;;;;19.38;8.15;;;3.20;99.90;;;;;;6120758;23;20032;-79
2023/01/21 11:09:36;;;;;;;23.17;9.23;;;3.20;99.90;;;;;;6118753;23;20060;-79
2023/01/21 11:12:03;;;;;;;20.88;9.23;;;3.20;99.90;;;;;;6116577;23;20021;-79
2023/01/21 11:14:30;;;;;;;25.90;10.68;;;3.20;99.90;;;;;;6122337;23;20025;-78
2023/01/21 11:16:59;;;;;;;26.15;9.45;;;3.30;99.90;;;;;;6145554;23;20132;-79
2023/01/21 11:19:30;;;;;;;24.80;10.32;;;3.30;99.90;;;;;;6147701;23;20361;-79
2023/01/21 11:22:15;;;;;;;23.63;9.57;;;3.30;99.90;;;;;;6148243;23;20036;-79
2023/01/21 11:24:45;;;;;;;22.65;9.07;;;3.30;99.90;;;;;;6151009;23;20056;-78
2023/01/21 11:27:21;;;;;;;20.73;8.88;;;3.40;99.90;;;;;;6126207;23;20586;-79
2023/01/21 11:29:49;;;;;;;23.13;9.13;;;3.40;99.90;;;;;;6149632;23;20022;-79
2023/01/21 11:32:22;;;;;;;23.13;8.27;;;3.40;99.90;;;;;;6126141;23;20068;-79
2023/01/21 11:34:56;;;;;;;25.33;9.13;;;3.40;99.90;;;;;;6148885;23;20105;-78
2023/01/21 11:37:28;;;;;;;24.45;9.73;;;3.50;99.90;;;;;;6121518;23;20026;-79
2023/01/21 11:40:20;;;;;;;23.92;9.90;;;3.50;99.90;;;;;;6150825;23;20405;-79
2023/01/21 11:42:53;;;;;;;25.77;11.25;;;3.50;99.90;;;;;;6141771;23;20105;-78
2023/01/21 11:45:34;;;;;;;25.38;10.40;;;3.70;99.90;;;;;;6150283;23;20520;-79
2023/01/21 11:48:18;;;;;;;28.13;11.77;;;3.60;99.90;;;;;;6151030;23;20109;-78
2023/01/21 11:50:46;;;;;;;24.70;9.95;;;3.60;99.90;;;;;;6129850;23;20033;-79
2023/01/21 11:53:16;;;;;;;29.30;11.25;;;3.50;99.90;;;;;;6105838;23;20488;-79
2023/01/21 11:55:50;;;;;;;28.90;10.98;;;3.50;99.90;;;;;;6127916;23;20025;-78
2023/01/21 11:58:25;;;;;;;23.88;9.65;;;3.50;99.90;;;;;;6130733;23;19997;-79
2023/01/21 12:00:59;;;;;;;31.73;12.15;;;3.50;99.90;;;;;;6147263;23;20018;-78
2023/01/21 12:03:33;;;;;;;29.48;10.52;;;3.20;99.90;;;;;;6165669;23;20025;-78
2023/01/21 12:06:01;;;;;;;24.55;10.20;;;3.40;99.90;;;;;;6140176;23;20077;-80
2023/01/21 12:08:32;;;;;;;24.45;10.00;;;3.40;99.90;;;;;;6164254;23;20470;-79
2023/01/21 12:11:01;;;;;;;25.80;9.63;;;3.40;99.90;;;;;;6235598;23;20016;-78
2023/01/21 12:13:52;;;;;;;26.42;9.90;;;3.30;99.90;;;;;;6186338;23;20021;-78
2023/01/21 12:16:49;;;;;;;26.08;9.13;;;3.50;99.90;;;;;;6191405;23;20017;-79
2023/01/21 12:19:46;;;;;;;26.83;10.40;;;3.40;99.90;;;;;;6205179;23;20027;-78
2023/01/21 12:22:41;;;;;;;23.17;8.40;;;3.50;99.90;;;;;;6197287;23;20016;-78
2023/01/21 12:25:37;;;;;;;24.67;9.80;;;3.20;99.90;;;;;;6192838;23;20028;-78
2023/01/21 12:28:25;;;;;;;22.58;9.00;;;3.50;99.90;;;;;;6146146;23;20017;-78
2023/01/21 12:31:10;;;;;;;24.02;8.75;;;3.50;99.90;;;;;;6179239;23;20013;-78
2023/01/21 12:33:49;;;;;;;23.58;8.18;;;3.50;99.90;;;;;;6141755;23;20092;-79
2023/01/21 12:36:25;;;;;;;19.50;7.53;;;3.40;99.90;;;;;;6195796;23;20032;-78
2023/01/21 12:39:20;;;;;;;17.65;7.55;;;3.50;99.90;;;;;;6172183;23;20043;-77
2023/01/21 12:45:43;;;;;;;15.15;6.47;;;2.30;99.90;;;;;;6175699;23;20080;-77
2023/01/21 12:48:48;;;;;;;14.15;6.63;;;3.50;99.90;;;;;;6147590;23;20131;-78
2023/01/21 12:51:28;;;;;;;12.07;6.17;;;2.70;99.90;;;;;;6117244;22;20048;-78
2023/01/21 13:09:58;;;;;;;6.82;3.25;;;3.20;99.90;;;;;;6150834;23;20029;-79
2023/01/21 13:12:59;;;;;;;10.10;3.65;;;3.30;99.90;;;;;;6086307;23;20006;-79
2023/01/21 13:15:55;;;;;;;7.82;3.30;;;2.80;99.90;;;;;;6066068;23;20023;-79
2023/01/21 13:31:51;;;;;;;6.88;2.72;;;3.20;99.90;;;;;;6199644;23;20015;-78
2023/01/21 13:41:44;;;;;;;9.25;3.42;;;3.20;99.90;;;;;;6186458;23;20072;-78
2023/01/21 13:44:18;;;;;;;10.90;4.25;;;3.10;99.90;;;;;;6158498;23;20028;-79
2023/01/21 13:47:28;;;;;;;9.40;4.70;;;3.10;99.90;;;;;;6193082;23;20016;-78
2023/01/21 13:50:33;;;;;;;14.35;5.47;;;3.10;99.90;;;;;;6105628;23;20084;-79
2023/01/21 13:53:39;;;;;;;12.07;5.53;;;3.20;99.90;;;;;;6123293;23;20047;31